createdAt,value
2022-12-08T00:01:21.295Z,1.05
2022-12-08T00:03:48.399Z,1.40
2022-12-08T00:06:54.523Z,1.25
2022-12-08T00:09:41.816Z,0.90
2022-12-08T00:12:17.844Z,0.63
2022-12-08T00:14:46.872Z,1.33
2022-12-08T00:17:15.614Z,1.17
2022-12-08T00:19:43.133Z,2.42
2022-12-08T00:22:11.217Z,1.10
2022-12-08T00:24:39.905Z,1.10
2022-12-08T00:27:08.003Z,0.98
2022-12-08T00:29:34.474Z,1.45
2022-12-08T00:32:01.052Z,0.85
2022-12-08T00:34:27.688Z,1.33
2022-12-08T00:36:54.382Z,1.42
2022-12-08T00:39:20.887Z,0.90
2022-12-08T00:42:05.798Z,1.23
2022-12-08T00:44:32.347Z,1.33
2022-12-08T00:46:58.946Z,1.13
2022-12-08T00:49:25.513Z,1.80
2022-12-08T00:51:52.427Z,1.05
2022-12-08T00:54:18.918Z,1.60
2022-12-08T00:56:46.178Z,1.30
2022-12-08T00:59:12.621Z,0.70
2022-12-08T01:01:39.195Z,1.10
2022-12-08T01:04:07.439Z,0.73
2022-12-08T01:06:36.983Z,0.77
2022-12-08T01:09:05.730Z,0.50
2022-12-08T01:11:32.943Z,1.17
2022-12-08T01:13:59.537Z,0.90
2022-12-08T01:16:28.829Z,1.00
2022-12-08T01:18:57.278Z,0.90
2022-12-08T01:21:24.098Z,1.02
2022-12-08T01:23:50.605Z,0.63
2022-12-08T01:26:18.183Z,0.65
2022-12-08T01:28:45.700Z,0.32
2022-12-08T01:31:14.908Z,0.30
2022-12-08T01:33:42.019Z,0.17
2022-12-08T01:36:17.993Z,0.40
2022-12-08T01:38:44.411Z,0.63
2022-12-08T01:41:15.702Z,0.13
2022-12-08T01:44:23.558Z,0.30
2022-12-08T01:46:52.491Z,0.50
2022-12-08T01:49:26.248Z,0.30
2022-12-08T01:52:14.144Z,0.45
2022-12-08T01:54:50.036Z,0.90
2022-12-08T01:57:49.307Z,0.47
2022-12-08T02:00:18.438Z,0.40
2022-12-08T02:03:04.798Z,0.70
2022-12-08T02:05:34.960Z,0.50
2022-12-08T02:08:06.987Z,0.60
2022-12-08T02:10:36.561Z,0.45
2022-12-08T02:13:04.488Z,0.25
2022-12-08T02:15:45.396Z,0.20
2022-12-08T02:18:41.417Z,0.52
2022-12-08T02:21:16.060Z,0.70
2022-12-08T02:23:59.305Z,0.20
2022-12-08T02:26:47.656Z,0.40
2022-12-08T02:29:39.722Z,0.20
2022-12-08T02:32:45.000Z,0.57
2022-12-08T02:35:32.399Z,0.20
2022-12-08T02:38:07.812Z,0.77
2022-12-08T02:41:02.307Z,0.15
2022-12-08T02:43:42.539Z,0.38
2022-12-08T02:46:34.293Z,0.40
2022-12-08T02:49:02.115Z,0.35
2022-12-08T02:51:28.595Z,0.35
2022-12-08T02:53:55.535Z,0.45
2022-12-08T02:56:40.739Z,0.25
2022-12-08T02:59:15.376Z,0.20
2022-12-08T03:02:06.256Z,0.35
2022-12-08T03:04:46.632Z,0.80
2022-12-08T03:07:17.362Z,0.60
2022-12-08T03:09:54.373Z,0.38
2022-12-08T03:12:28.807Z,0.60
2022-12-08T03:14:59.801Z,0.70
2022-12-08T03:17:29.682Z,0.60
2022-12-08T03:19:58.179Z,0.40
2022-12-08T03:22:27.522Z,1.02
2022-12-08T03:24:56.428Z,0.88
2022-12-08T03:27:28.630Z,1.05
2022-12-08T03:29:57.673Z,0.40
2022-12-08T03:32:36.186Z,0.32
2022-12-08T03:35:08.291Z,0.45
2022-12-08T03:37:37.804Z,0.50
2022-12-08T03:40:08.323Z,0.20
2022-12-08T03:42:34.819Z,0.35
2022-12-08T03:45:01.300Z,0.28
2022-12-08T03:47:27.783Z,0.30
2022-12-08T03:49:54.296Z,0.30
2022-12-08T03:52:20.748Z,0.25
2022-12-08T03:54:47.232Z,0.15
2022-12-08T03:57:13.826Z,0.30
2022-12-08T03:59:40.282Z,0.80
2022-12-08T04:02:06.797Z,0.20
2022-12-08T04:04:33.528Z,0.60
2022-12-08T04:06:59.980Z,0.70
2022-12-08T04:09:26.420Z,0.40
2022-12-08T04:11:52.919Z,0.20
2022-12-08T04:14:19.552Z,0.17
2022-12-08T04:16:46.010Z,0.30
2022-12-08T04:19:12.473Z,0.30
2022-12-08T04:21:38.976Z,0.28
2022-12-08T04:24:05.658Z,0.08
2022-12-08T04:26:32.112Z,0.25
2022-12-08T04:28:58.577Z,0.13
2022-12-08T04:31:25.060Z,0.20
2022-12-08T04:33:51.592Z,0.13
2022-12-08T04:36:18.234Z,0.45
2022-12-08T04:38:44.688Z,0.20
2022-12-08T04:41:11.302Z,0.15
2022-12-08T04:43:37.815Z,0.30
2022-12-08T04:46:10.580Z,0.20
2022-12-08T04:48:38.281Z,0.10
2022-12-08T04:51:05.112Z,0.20
2022-12-08T04:53:31.740Z,0.40
2022-12-08T04:55:58.273Z,0.35
2022-12-08T04:58:24.939Z,0.32
2022-12-08T05:00:51.533Z,0.47
2022-12-08T05:03:18.091Z,0.20
2022-12-08T05:05:44.651Z,0.40
2022-12-08T05:08:11.326Z,0.40
2022-12-08T05:10:38.788Z,1.38
2022-12-08T05:13:05.430Z,0.30
2022-12-08T05:15:31.895Z,0.22
2022-12-08T05:17:58.380Z,0.25
2022-12-08T05:20:25.895Z,0.30
2022-12-08T05:22:52.380Z,0.43
2022-12-08T05:25:18.831Z,0.10
2022-12-08T05:27:45.434Z,0.20
2022-12-08T05:30:12.121Z,0.13
2022-12-08T05:32:38.603Z,0.10
2022-12-08T05:35:05.350Z,0.10
2022-12-08T05:37:31.846Z,0.13
2022-12-08T05:39:58.343Z,0.28
2022-12-08T05:42:25.290Z,0.10
2022-12-08T05:44:52.112Z,0.25
2022-12-08T05:47:18.681Z,0.13
2022-12-08T05:49:45.153Z,0.85
2022-12-08T05:52:11.654Z,0.20
2022-12-08T05:54:39.463Z,0.10
2022-12-08T05:57:06.008Z,0.13
2022-12-08T05:59:32.626Z,0.30
2022-12-08T06:01:59.241Z,0.47
2022-12-08T06:04:25.819Z,0.10
2022-12-08T06:06:52.427Z,0.20
2022-12-08T06:09:18.861Z,0.13
2022-12-08T06:11:47.102Z,0.10
2022-12-08T06:14:13.691Z,0.10
2022-12-08T06:16:40.236Z,0.10
2022-12-08T06:19:07.025Z,0.30
2022-12-08T06:21:33.512Z,0.10
2022-12-08T06:23:59.992Z,0.20
2022-12-08T06:26:26.716Z,0.20
2022-12-08T06:28:53.221Z,0.20
2022-12-08T06:31:24.743Z,0.45
2022-12-08T06:33:52.155Z,0.30
2022-12-08T06:36:21.536Z,0.30
2022-12-08T06:38:48.625Z,0.40
2022-12-08T06:41:15.893Z,0.60
2022-12-08T06:43:42.735Z,0.60
2022-12-08T06:46:13.371Z,0.68
2022-12-08T06:48:39.986Z,0.80
2022-12-08T06:51:08.794Z,0.70
2022-12-08T06:53:35.300Z,0.88
2022-12-08T06:56:01.864Z,0.85
2022-12-08T06:58:28.403Z,0.85
2022-12-08T07:00:55.153Z,0.95
2022-12-08T07:03:21.752Z,0.73
2022-12-08T07:05:48.217Z,1.30
2022-12-08T07:08:15.076Z,0.82
2022-12-08T07:10:41.936Z,1.58
2022-12-08T07:13:08.424Z,1.40
2022-12-08T07:15:34.901Z,1.38
2022-12-08T07:18:01.378Z,1.13
2022-12-08T07:20:28.045Z,1.08
2022-12-08T07:22:54.662Z,1.33
2022-12-08T07:25:22.051Z,1.60
2022-12-08T07:27:50.422Z,1.02
2022-12-08T07:30:17.132Z,1.80
2022-12-08T07:32:43.636Z,1.38
2022-12-08T07:35:10.462Z,1.38
2022-12-08T07:37:37.971Z,1.15
2022-12-08T07:40:06.732Z,0.73
2022-12-08T07:42:33.728Z,0.95
2022-12-08T07:45:00.830Z,1.05
2022-12-08T07:47:27.417Z,0.80
2022-12-08T07:49:53.895Z,1.10
2022-12-08T07:52:20.559Z,0.68
2022-12-08T07:54:47.350Z,0.35
2022-12-08T07:57:13.957Z,0.50
2022-12-08T07:59:40.460Z,0.30
2022-12-08T08:02:24.300Z,0.73
2022-12-08T08:04:52.121Z,0.43
2022-12-08T08:07:18.738Z,0.60
2022-12-08T08:09:45.830Z,0.50
2022-12-08T08:12:31.867Z,0.38
2022-12-08T08:15:00.443Z,0.40
2022-12-08T08:17:27.579Z,0.50
2022-12-08T08:19:54.235Z,0.52
2022-12-08T08:22:20.719Z,0.45
2022-12-08T08:24:47.131Z,0.50
2022-12-08T08:27:14.037Z,0.70
2022-12-08T08:29:40.569Z,0.60
2022-12-08T08:32:07.079Z,0.60
2022-12-08T08:34:36.640Z,0.50
2022-12-08T08:37:04.437Z,0.60
2022-12-08T08:39:32.045Z,0.38
2022-12-08T08:41:58.750Z,0.60
2022-12-08T08:44:25.361Z,0.40
2022-12-08T08:46:52.300Z,0.60
2022-12-08T08:49:18.914Z,0.70
2022-12-08T08:51:46.199Z,0.65
2022-12-08T08:54:12.719Z,0.47
2022-12-08T08:56:39.200Z,0.50
2022-12-08T08:59:05.660Z,0.70
2022-12-08T09:01:32.447Z,0.47
2022-12-08T09:03:59.057Z,0.55
2022-12-08T09:06:28.132Z,0.50
2022-12-08T09:08:54.723Z,0.47
2022-12-08T09:11:23.282Z,0.40
2022-12-08T09:16:17.516Z,0.60
2022-12-08T09:18:44.221Z,0.63
2022-12-08T09:21:16.577Z,0.70
2022-12-08T09:23:44.213Z,0.30
2022-12-08T09:26:10.682Z,0.30
2022-12-08T09:28:37.591Z,0.63
2022-12-08T09:31:04.433Z,0.55
2022-12-08T09:33:31.181Z,0.88
2022-12-08T09:36:04.759Z,0.35
2022-12-08T09:38:31.895Z,0.55
2022-12-08T09:40:59.834Z,0.70
2022-12-08T09:43:47.796Z,0.55
2022-12-08T09:46:24.764Z,0.85
2022-12-08T09:48:57.028Z,0.32
2022-12-08T09:51:31.361Z,0.60
2022-12-08T09:54:15.736Z,0.40
2022-12-08T09:56:42.279Z,0.50
2022-12-08T09:59:08.868Z,0.50
2022-12-08T10:01:41.580Z,0.70
2022-12-08T10:04:36.111Z,0.60
2022-12-08T10:07:31.964Z,0.57
2022-12-08T10:10:25.128Z,0.63
2022-12-08T10:13:14.507Z,0.73
2022-12-08T10:16:00.245Z,1.00
2022-12-08T10:18:32.359Z,0.60
2022-12-08T10:21:20.508Z,1.00
2022-12-08T10:23:53.395Z,0.65
2022-12-08T10:26:21.458Z,0.60
2022-12-08T10:28:48.409Z,0.55
2022-12-08T10:31:24.253Z,0.55
2022-12-08T10:34:01.375Z,0.80
2022-12-08T10:36:51.971Z,0.55
2022-12-08T10:39:57.083Z,0.50
2022-12-08T10:42:23.581Z,0.50
2022-12-08T10:45:19.504Z,0.85
2022-12-08T10:48:10.412Z,0.30
2022-12-08T10:50:43.959Z,0.22
2022-12-08T10:53:20.420Z,0.63
2022-12-08T10:55:50.171Z,0.13
2022-12-08T10:58:24.656Z,0.15
2022-12-08T11:00:55.960Z,0.40
2022-12-08T11:03:28.167Z,0.20
2022-12-08T11:06:05.425Z,0.13
2022-12-08T11:11:11.860Z,0.52
2022-12-08T11:13:42.145Z,0.32
2022-12-08T11:16:13.808Z,0.25
2022-12-08T11:18:47.028Z,0.30
2022-12-08T11:21:19.835Z,0.40
2022-12-08T11:23:49.347Z,0.52
2022-12-08T11:26:25.972Z,0.73
2022-12-08T11:28:52.430Z,0.40
2022-12-08T11:31:21.609Z,0.38
2022-12-08T11:33:51.171Z,0.40
2022-12-08T11:36:20.685Z,0.50
2022-12-08T11:38:50.512Z,0.52
2022-12-08T11:41:20.060Z,0.55
2022-12-08T11:44:16.566Z,0.50
2022-12-08T11:47:10.717Z,0.60
2022-12-08T11:49:39.951Z,0.68
2022-12-08T11:52:24.069Z,0.63
2022-12-08T11:54:50.411Z,0.57
2022-12-08T11:57:20.592Z,0.80
2022-12-08T11:59:57.284Z,1.10
2022-12-08T12:02:26.976Z,1.02
2022-12-08T12:05:06.326Z,1.10
2022-12-08T12:07:54.303Z,0.80
2022-12-08T12:10:51.173Z,0.80
2022-12-08T12:13:55.982Z,0.65
2022-12-08T12:16:40.779Z,0.80
2022-12-08T12:19:14.748Z,0.85
2022-12-08T12:21:48.755Z,0.47
2022-12-08T12:24:27.348Z,0.77
2022-12-08T12:27:02.562Z,0.73
2022-12-08T12:29:35.978Z,0.57
2022-12-08T12:32:06.060Z,1.13
2022-12-08T12:34:57.143Z,0.88
2022-12-08T12:37:28.055Z,0.90
2022-12-08T12:40:05.553Z,1.67
2022-12-08T12:42:39.866Z,1.52
2022-12-08T12:45:31.226Z,2.00
2022-12-08T12:48:00.336Z,2.00
2022-12-08T12:50:33.024Z,2.03
2022-12-08T12:53:01.214Z,2.05
2022-12-08T12:55:48.989Z,1.98
2022-12-08T12:58:27.421Z,2.30
2022-12-08T13:01:15.234Z,1.70
2022-12-08T13:04:03.663Z,2.03
2022-12-08T13:06:38.750Z,1.45
2022-12-08T13:09:07.289Z,1.90
2022-12-08T13:14:59.399Z,1.42
2022-12-08T13:17:32.828Z,2.28
2022-12-08T13:20:04.282Z,1.25
2022-12-08T13:22:50.207Z,1.42
2022-12-08T13:25:42.482Z,1.50
2022-12-08T13:28:22.057Z,1.35
2022-12-08T13:30:54.169Z,1.48
2022-12-08T13:33:26.716Z,1.60
2022-12-08T13:36:14.484Z,1.27
2022-12-08T13:38:46.060Z,1.67
2022-12-08T13:41:29.392Z,1.60
2022-12-08T13:45:03.474Z,2.20
2022-12-08T13:47:17.173Z,1.40
2022-12-08T13:51:10.508Z,2.17
2022-12-08T13:56:51.312Z,1.83
2022-12-08T13:58:31.889Z,2.35
2022-12-08T14:00:58.807Z,2.33
2022-12-08T14:03:25.486Z,2.55
2022-12-08T14:11:34.844Z,2.72
2022-12-08T14:16:38.967Z,2.53
2022-12-08T14:19:32.326Z,2.60
2022-12-08T14:22:07.976Z,2.55
2022-12-08T14:24:34.503Z,2.70
2022-12-08T14:27:04.348Z,1.90
2022-12-08T14:29:39.670Z,2.05
2022-12-08T14:32:20.033Z,1.65
2022-12-08T14:34:53.857Z,1.80
2022-12-08T14:37:21.750Z,2.10
2022-12-08T14:39:51.063Z,1.30
2022-12-08T14:42:25.980Z,1.45
2022-12-08T14:45:01.968Z,1.05
2022-12-08T14:47:33.587Z,1.33
2022-12-08T14:50:03.293Z,1.25
2022-12-08T14:52:30.449Z,1.20
2022-12-08T14:54:58.440Z,1.02
2022-12-08T14:57:35.350Z,0.88
2022-12-08T15:00:08.619Z,0.77
2022-12-08T15:02:42.155Z,0.93
2022-12-08T15:05:31.978Z,0.80
2022-12-08T15:08:03.987Z,1.20
2022-12-08T15:10:33.237Z,1.90
2022-12-08T15:13:05.082Z,1.75
2022-12-08T15:15:45.718Z,1.80
2022-12-08T15:18:37.356Z,2.10
2022-12-08T15:21:08.941Z,2.00
2022-12-08T15:23:45.894Z,1.85
2022-12-08T15:26:23.809Z,1.83
2022-12-08T15:28:50.722Z,2.08
2022-12-08T15:31:18.303Z,1.83
2022-12-08T15:33:45.021Z,1.70
2022-12-08T15:36:12.056Z,1.88
2022-12-08T15:38:39.114Z,2.05
2022-12-08T15:41:08.038Z,1.58
2022-12-08T15:43:37.990Z,2.15
2022-12-08T15:46:04.929Z,1.65
2022-12-08T15:48:31.419Z,1.98
2022-12-08T15:50:58.535Z,2.63
2022-12-08T15:53:25.263Z,2.08
2022-12-08T15:58:53.405Z,2.92
2022-12-08T16:01:21.012Z,3.17
2022-12-08T16:09:32.592Z,2.90
2022-12-08T16:12:17.709Z,2.65
2022-12-08T16:15:48.136Z,3.00
2022-12-08T16:17:31.667Z,2.22
2022-12-08T16:19:59.042Z,1.98
2022-12-08T16:25:20.616Z,2.78
2022-12-08T16:28:05.215Z,2.53
2022-12-08T16:30:32.712Z,3.42
2022-12-08T16:32:59.182Z,2.85
2022-12-08T16:35:25.676Z,2.67
2022-12-08T16:37:52.128Z,3.47
2022-12-08T16:40:18.689Z,3.58
2022-12-08T16:42:46.546Z,4.25
2022-12-08T16:45:18.822Z,4.30
2022-12-08T16:47:48.012Z,4.10
2022-12-08T16:50:17.838Z,4.75
2022-12-08T16:52:45.450Z,4.80
2022-12-08T16:55:15.696Z,5.45
2022-12-08T16:57:42.628Z,5.72
2022-12-08T17:00:16.380Z,5.38
2022-12-08T17:02:42.950Z,6.22
2022-12-08T17:05:13.744Z,5.97
2022-12-08T17:07:42.080Z,6.75
2022-12-08T17:10:10.663Z,6.65
2022-12-08T17:12:37.222Z,7.13
2022-12-08T17:15:08.626Z,6.68
2022-12-08T17:17:35.891Z,7.05
2022-12-08T17:20:05.500Z,6.85
2022-12-08T17:22:34.283Z,6.72
2022-12-08T17:27:27.862Z,5.32
2022-12-08T17:29:54.524Z,6.28
2022-12-08T17:32:21.227Z,7.05
2022-12-08T17:34:48.472Z,7.13
2022-12-08T17:37:15.171Z,7.75
2022-12-08T17:39:41.682Z,8.10
2022-12-08T17:42:08.640Z,6.57
2022-12-08T17:44:35.738Z,7.05
2022-12-08T17:47:03.052Z,6.68
2022-12-08T17:49:31.035Z,7.13
2022-12-08T17:51:59.430Z,6.03
2022-12-08T17:54:25.984Z,5.93
2022-12-08T17:56:52.499Z,6.82
2022-12-08T17:59:19.010Z,6.93
2022-12-08T18:01:45.709Z,6.72
2022-12-08T18:04:12.900Z,6.55
2022-12-08T18:06:39.775Z,6.95
2022-12-08T18:09:07.837Z,7.28
2022-12-08T18:11:35.933Z,6.38
2022-12-08T18:14:09.723Z,6.07
2022-12-08T18:16:41.683Z,5.55
2022-12-08T18:19:09.429Z,6.00
2022-12-08T18:21:36.290Z,5.97
2022-12-08T18:24:03.349Z,5.95
2022-12-08T18:26:30.726Z,6.35
2022-12-08T18:28:57.891Z,5.88
2022-12-08T18:31:25.100Z,6.55
2022-12-08T18:33:52.560Z,5.90
2022-12-08T18:36:22.009Z,5.85
2022-12-08T18:38:49.064Z,7.38
2022-12-08T18:41:23.401Z,6.88
2022-12-08T18:43:50.340Z,6.55
2022-12-08T18:46:16.932Z,7.80
2022-12-08T18:48:47.212Z,6.90
2022-12-08T18:51:23.004Z,7.20
2022-12-08T18:53:50.299Z,8.85
2022-12-08T18:56:28.020Z,8.30
2022-12-08T18:59:03.171Z,8.00
2022-12-08T19:01:35.208Z,8.93
2022-12-08T19:04:27.437Z,8.68
2022-12-08T19:06:56.663Z,9.65
2022-12-08T19:09:25.492Z,8.65
2022-12-08T19:11:52.685Z,9.45
2022-12-08T19:14:25.775Z,8.93
2022-12-08T19:16:54.415Z,8.48
2022-12-08T19:19:21.607Z,9.00
2022-12-08T19:21:48.539Z,8.45
2022-12-08T19:24:15.580Z,9.18
2022-12-08T19:26:42.917Z,8.60
2022-12-08T19:29:10.481Z,8.32
2022-12-08T19:31:37.421Z,7.95
2022-12-08T19:34:08.451Z,7.88
2022-12-08T19:36:38.190Z,8.32
2022-12-08T19:39:23.919Z,8.38
2022-12-08T19:42:09.146Z,8.07
2022-12-08T19:44:54.299Z,6.70
2022-12-08T19:47:26.148Z,6.95
2022-12-08T19:49:55.359Z,7.65
2022-12-08T19:52:22.277Z,7.75
2022-12-08T19:54:48.841Z,8.18
2022-12-08T19:57:15.965Z,7.75
2022-12-08T19:59:42.458Z,9.65
2022-12-08T20:02:10.522Z,9.52
2022-12-08T20:04:37.149Z,9.50
2022-12-08T20:07:04.240Z,8.10
2022-12-08T20:09:30.651Z,8.77
2022-12-08T20:11:57.162Z,8.85
2022-12-08T20:14:23.585Z,8.57
2022-12-08T20:16:53.274Z,8.50
2022-12-08T20:19:19.912Z,9.00
2022-12-08T20:21:46.616Z,11.68
2022-12-08T20:24:13.506Z,10.32
2022-12-08T20:26:40.087Z,10.75
2022-12-08T20:29:06.975Z,10.00
2022-12-08T20:31:33.827Z,12.00
2022-12-08T20:34:01.236Z,11.13
2022-12-08T20:36:28.288Z,11.27
2022-12-08T20:38:55.617Z,12.40
2022-12-08T20:41:23.397Z,13.38
2022-12-08T20:43:50.487Z,13.02
2022-12-08T20:46:18.092Z,12.43
2022-12-08T20:48:44.940Z,12.77
2022-12-08T20:51:16.718Z,10.32
2022-12-08T20:53:43.462Z,11.68
2022-12-08T20:56:17.450Z,11.05
2022-12-08T20:58:44.838Z,12.25
2022-12-08T21:01:13.029Z,11.15
2022-12-08T21:03:40.354Z,9.27
2022-12-08T21:06:07.958Z,11.30
2022-12-08T21:08:35.393Z,11.70
2022-12-08T21:11:02.628Z,11.38
2022-12-08T21:13:29.483Z,11.95
2022-12-08T21:15:56.785Z,12.63
2022-12-08T21:18:24.463Z,11.68
2022-12-08T21:20:52.286Z,12.63
2022-12-08T21:23:19.221Z,12.25
2022-12-08T21:25:47.244Z,10.98
2022-12-08T21:28:13.902Z,11.38
2022-12-08T21:30:41.429Z,10.73
2022-12-08T21:33:08.253Z,10.30
2022-12-08T21:35:34.893Z,10.38
2022-12-08T21:38:01.564Z,11.23
2022-12-08T21:40:28.269Z,11.23
2022-12-08T21:42:55.105Z,10.95
2022-12-08T21:45:22.062Z,11.20
2022-12-08T21:47:49.877Z,11.00
2022-12-08T21:50:17.659Z,11.13
2022-12-08T21:52:47.226Z,11.00
2022-12-08T21:55:15.798Z,11.50
2022-12-08T21:57:42.772Z,11.35
2022-12-08T22:00:13.371Z,10.85
2022-12-08T22:02:40.096Z,9.07
2022-12-08T22:05:07.140Z,9.10
2022-12-08T22:07:33.758Z,9.23
2022-12-08T22:10:00.327Z,9.93
2022-12-08T22:12:27.073Z,9.45
2022-12-08T22:14:53.518Z,9.25
2022-12-08T22:17:20.310Z,10.02
2022-12-08T22:19:47.128Z,9.23
2022-12-08T22:22:13.642Z,8.13
2022-12-08T22:24:40.146Z,7.90
2022-12-08T22:27:06.716Z,8.57
2022-12-08T22:29:33.158Z,8.52
2022-12-08T22:32:00.077Z,9.18
2022-12-08T22:34:26.725Z,9.05
2022-12-08T22:36:53.143Z,9.73
2022-12-08T22:39:20.693Z,9.32
2022-12-08T22:41:47.177Z,10.70
2022-12-08T22:44:16.029Z,10.52
2022-12-08T22:46:42.868Z,10.32
2022-12-08T22:49:09.475Z,9.48
2022-12-08T22:51:37.210Z,10.13
2022-12-08T22:54:04.412Z,10.57
2022-12-08T22:56:31.236Z,9.52
2022-12-08T22:58:58.493Z,8.52
2022-12-08T23:01:29.265Z,8.98
2022-12-08T23:03:56.539Z,7.80
2022-12-08T23:06:24.059Z,8.32
2022-12-08T23:08:51.126Z,8.07
2022-12-08T23:11:18.511Z,8.80
2022-12-08T23:13:45.383Z,7.78
2022-12-08T23:16:13.089Z,6.78
2022-12-08T23:18:44.945Z,6.75
2022-12-08T23:21:15.356Z,7.40
2022-12-08T23:23:42.451Z,7.05
2022-12-08T23:26:18.454Z,7.55
2022-12-08T23:28:45.735Z,7.03
2022-12-08T23:31:12.629Z,7.63
2022-12-08T23:33:39.119Z,7.47
2022-12-08T23:36:06.103Z,6.95
2022-12-08T23:38:33.032Z,7.03
2022-12-08T23:41:05.469Z,7.65
2022-12-08T23:43:32.814Z,7.43
2022-12-08T23:45:59.739Z,8.00
2022-12-08T23:48:27.922Z,7.90
2022-12-08T23:50:54.947Z,8.35
2022-12-08T23:53:21.630Z,7.43
2022-12-08T23:55:48.387Z,9.18
2022-12-08T23:58:14.838Z,9.30
